Dobrodošli na spletni strani vremenske postaje Senovo. Vse informacije so informativnega značaja, saj vremenska postaja ni del državne mreže meteoroloških postaj. AKTUALNIH OBVESTIL NI.


Posebna pozornost v zvezi z vremenskimi dogajanji ni potrebna.    Posebna pozornost v zvezi z vremenskimi dogajanji ni potrebna.

Pogled proti Armezu več informacij Pogled proti Armezu


Bohor več informacij Bohor


Radar strel več informacij blitzortung!


Radar padavin več informacij rain snow radar


Obiščite še:

Template documentation
and downloads

And another site



Weather Underground, zgodovina - Tekstovno

Dnevni povzetek za Junij 27, 2017 Enote:  Metrično    Angleško   Obe
« Predhodni Dan
Naslednji Dan »
Dnevni Tedenski Mesečni Letni Po meri
  Višja: Nižja: Povprečje:
Temperatura: -17.8 °C -9.7 °C -6.1 °C
Točka rosišča: -17.8 °C -10.3 °C -8.5 °C
Vlažnost: Humidity % 54 % 78 %
Hitrost vetra: 0 km/h 0 km/h 0 km/h
Sunki vetra: 0 km/h - -
Veter:- - North
Zračni tlak: 0 hPa 34164.7 hPa -
Padavine: 0 mm    
Historical Graphs
 
 
Tabelarni podarki za Junij 27, 2017
Čas Temperatura Točka rosišča Zračni tlak Veter Hitrost vetra Sunki vetra Vlažnost Intenziteta padavin (urna)
-17.8 °C -17.8 °C 0 hPa Calm     Humidity % 0 mm
00:03 -8.2 °C -9.6 °C 34337.4 hPa Calm     86 % 0 mm
00:08 -8.3 °C -9.6 °C 34337.4 hPa Calm     86 % 0 mm
00:13 -8.3 °C -9.6 °C 34337.4 hPa Calm     87 % 0 mm
00:18 -8.3 °C -9.6 °C 34337.4 hPa Calm     87 % 0 mm
00:23 -8.4 °C -9.5 °C 34337.4 hPa Calm     88 % 0 mm
00:28 -8.4 °C -9.5 °C 34337.4 hPa Calm     88 % 0 mm
00:33 -8.4 °C -9.6 °C 34337.4 hPa Calm     88 % 0 mm
00:38 -8.4 °C -9.6 °C 34337.4 hPa Calm     88 % 0 mm
00:43 -8.4 °C -9.6 °C 34337.4 hPa Calm     88 % 0 mm
00:48 -8.5 °C -9.5 °C 34337.4 hPa Calm     89 % 0 mm
00:53 -8.6 °C -9.7 °C 34337.4 hPa Calm     88 % 0 mm
00:58 -8.6 °C -9.6 °C 34337.4 hPa Calm     89 % 0 mm
01:03 -8.6 °C -9.6 °C 34337.4 hPa Calm     89 % 0 mm
01:08 -8.6 °C -9.6 °C 34337.4 hPa Calm     89 % 0 mm
01:13 -8.7 °C -9.7 °C 34337.4 hPa Calm     89 % 0 mm
01:18 -8.7 °C -9.7 °C 34337.4 hPa Calm     89 % 0 mm
01:23 -8.7 °C -9.7 °C 34303.6 hPa Calm     89 % 0 mm
01:28 -8.8 °C -9.8 °C 34303.6 hPa Calm     89 % 0 mm
01:34 -8.8 °C -9.8 °C 34303.6 hPa Calm     90 % 0 mm
01:39 -8.8 °C -9.8 °C 34303.6 hPa Calm     90 % 0 mm
01:44 -8.9 °C -9.8 °C 34303.6 hPa Calm     90 % 0 mm
01:49 -8.9 °C -9.8 °C 34303.6 hPa Calm     90 % 0 mm
01:59 -8.9 °C -9.8 °C 34303.6 hPa Calm     91 % 0 mm
02:04 -9 °C -9.9 °C 34303.6 hPa Calm     90 % 0 mm
02:09 -9 °C -9.8 °C 34303.6 hPa Calm     91 % 0 mm
02:14 -9.1 °C -9.9 °C 34303.6 hPa Calm     91 % 0 mm
02:19 -9.1 °C -9.9 °C 34303.6 hPa Calm     91 % 0 mm
02:24 -9.1 °C -9.9 °C 34303.6 hPa Calm     91 % 0 mm
02:29 -9.1 °C -9.9 °C 34303.6 hPa Calm     91 % 0 mm
02:34 -9.1 °C -9.9 °C 34303.6 hPa Calm     91 % 0 mm
02:35 -9.2 °C -9.9 °C 34303.6 hPa Calm     91 % 0 mm
02:40 -9.2 °C -9.9 °C 34303.6 hPa Calm     91 % 0 mm
02:45 -9.2 °C -9.9 °C 34303.6 hPa Calm     92 % 0 mm
02:50 -9.2 °C -9.9 °C 34303.6 hPa Calm     92 % 0 mm
02:55 -9.2 °C -9.9 °C 34303.6 hPa Calm     92 % 0 mm
03:00 -9.3 °C -10 °C 34303.6 hPa Calm     92 % 0 mm
03:05 -9.3 °C -10 °C 34303.6 hPa Calm     92 % 0 mm
03:10 -9.3 °C -10.1 °C 34303.6 hPa Calm     92 % 0 mm
03:12 -9.3 °C -10.1 °C 34303.6 hPa Calm     92 % 0 mm
03:17 -9.3 °C -10.1 °C 34303.6 hPa Calm     92 % 0 mm
03:22 -9.3 °C -10.1 °C 34303.6 hPa Calm     92 % 0 mm
03:27 -9.4 °C -10.1 °C 34303.6 hPa Calm     92 % 0 mm
03:32 -9.4 °C -10.1 °C 34303.6 hPa Calm     92 % 0 mm
03:37 -9.4 °C -10.1 °C 34303.6 hPa Calm     92 % 0 mm
03:42 -9.4 °C -10.2 °C 34303.6 hPa Calm     92 % 0 mm
03:47 -9.4 °C -10.2 °C 34303.6 hPa Calm     92 % 0 mm
03:52 -9.5 °C -10.1 °C 34303.6 hPa Calm     93 % 0 mm
03:57 -9.5 °C -10.1 °C 34303.6 hPa Calm     93 % 0 mm
04:02 -9.5 °C -10.1 °C 34303.6 hPa Calm     93 % 0 mm
04:07 -9.6 °C -10.2 °C 34303.6 hPa Calm     93 % 0 mm
04:12 -9.6 °C -10.2 °C 34303.6 hPa Calm     93 % 0 mm
04:17 -9.6 °C -10.2 °C 34303.6 hPa Calm     93 % 0 mm
04:22 -9.6 °C -10.2 °C 34303.6 hPa Calm     93 % 0 mm
04:27 -9.6 °C -10.2 °C 34303.6 hPa Calm     93 % 0 mm
04:32 -9.6 °C -10.2 °C 34303.6 hPa Calm     93 % 0 mm
04:37 -9.7 °C -10.3 °C 34303.6 hPa Calm     93 % 0 mm
04:42 -9.7 °C -10.3 °C 34303.6 hPa Calm     93 % 0 mm
04:47 -9.7 °C -10.2 °C 34303.6 hPa Calm     94 % 0 mm
04:48 -9.7 °C -10.2 °C 34303.6 hPa Calm     94 % 0 mm
04:53 -9.7 °C -10.2 °C 34303.6 hPa Calm     94 % 0 mm
04:58 -9.7 °C -10.2 °C 34269.7 hPa Calm     94 % 0 mm
05:03 -9.7 °C -10.2 °C 34269.7 hPa Calm     94 % 0 mm
05:08 -9.7 °C -10.2 °C 34269.7 hPa Calm     94 % 0 mm
05:13 -9.7 °C -10.2 °C 34269.7 hPa Calm     94 % 0 mm
05:19 -9.6 °C -10.2 °C 34269.7 hPa Calm     94 % 0 mm
05:24 -9.6 °C -10.2 °C 34269.7 hPa Calm     94 % 0 mm
05:29 -9.6 °C -10.1 °C 34269.7 hPa Calm     94 % 0 mm
05:39 -9.4 °C -9.9 °C 34303.6 hPa Calm     94 % 0 mm
05:44 -9.4 °C -9.9 °C 34303.6 hPa Calm     94 % 0 mm
05:49 -9.3 °C -9.9 °C 34303.6 hPa Calm     94 % 0 mm
05:54 -9.3 °C -9.8 °C 34303.6 hPa Calm     94 % 0 mm
05:59 -9.2 °C -9.7 °C 34303.6 hPa Calm     95 % 0 mm
06:04 -9.2 °C -9.6 °C 34303.6 hPa Calm     95 % 0 mm
06:09 -9.1 °C -9.5 °C 34303.6 hPa Calm     95 % 0 mm
06:14 -9 °C -9.4 °C 34303.6 hPa Calm     95 % 0 mm
06:19 -8.9 °C -9.3 °C 34303.6 hPa Calm     95 % 0 mm
06:24 -8.8 °C -9.3 °C 34303.6 hPa Calm     95 % 0 mm
06:29 -8.8 °C -9.2 °C 34303.6 hPa Calm     95 % 0 mm
06:34 -8.7 °C -9.2 °C 34303.6 hPa Calm     95 % 0 mm
06:39 -8.6 °C -9.1 °C 34303.6 hPa Calm     95 % 0 mm
06:44 -8.6 °C -9 °C 34303.6 hPa Calm     95 % 0 mm
06:49 -8.4 °C -8.9 °C 34303.6 hPa Calm     95 % 0 mm
06:54 -8.4 °C -8.9 °C 34269.7 hPa Calm     94 % 0 mm
06:59 -8.3 °C -8.9 °C 34269.7 hPa Calm     94 % 0 mm
07:04 -8.2 °C -8.8 °C 34269.7 hPa Calm     94 % 0 mm
07:09 -8.1 °C -8.7 °C 34303.6 hPa Calm     94 % 0 mm
07:14 -8.1 °C -8.7 °C 34303.6 hPa Calm     93 % 0 mm
07:19 -8 °C -8.7 °C 34303.6 hPa Calm     93 % 0 mm
07:24 -7.9 °C -8.5 °C 34303.6 hPa Calm     93 % 0 mm
07:29 -7.8 °C -8.4 °C 34303.6 hPa Calm     93 % 0 mm
07:34 -7.8 °C -8.4 °C 34303.6 hPa Calm     93 % 0 mm
07:39 -7.8 °C -8.5 °C 34269.7 hPa Calm     92 % 0 mm
07:44 -7.7 °C -8.4 °C 34269.7 hPa Calm     92 % 0 mm
07:49 -7.7 °C -8.4 °C 34269.7 hPa Calm     92 % 0 mm
07:54 -7.6 °C -8.3 °C 34303.6 hPa Calm     92 % 0 mm
07:59 -7.6 °C -8.3 °C 34303.6 hPa Calm     92 % 0 mm
08:04 -7.6 °C -8.3 °C 34303.6 hPa Calm     92 % 0 mm
08:09 -7.5 °C -8.3 °C 34269.7 hPa Calm     91 % 0 mm
08:14 -7.4 °C -8.2 °C 34269.7 hPa Calm     92 % 0 mm
08:19 -7.4 °C -8.1 °C 34269.7 hPa Calm     92 % 0 mm
08:24 -7.3 °C -8 °C 34303.6 hPa Calm     92 % 0 mm
08:29 -7.2 °C -8.1 °C 34303.6 hPa Calm     91 % 0 mm
08:34 -7.1 °C -7.9 °C 34303.6 hPa Calm     91 % 0 mm
08:39 -6.9 °C -7.8 °C 34303.6 hPa Calm     91 % 0 mm
08:44 -6.8 °C -7.8 °C 34303.6 hPa Calm     90 % 0 mm
08:49 -6.7 °C -7.7 °C 34303.6 hPa Calm     90 % 0 mm
08:54 -6.7 °C -7.7 °C 34303.6 hPa Calm     89 % 0 mm
08:59 -6.6 °C -7.7 °C 34303.6 hPa Calm     88 % 0 mm
09:04 -6.5 °C -7.7 °C 34303.6 hPa Calm     88 % 0 mm
09:09 -6.4 °C -7.7 °C 34303.6 hPa Calm     87 % 0 mm
09:14 -6.3 °C -7.6 °C 34303.6 hPa Calm     87 % 0 mm
09:19 -6.3 °C -7.6 °C 34303.6 hPa Calm     87 % 0 mm
09:24 -6.2 °C -7.4 °C 34303.6 hPa Calm     87 % 0 mm
09:29 -5.9 °C -7.3 °C 34303.6 hPa Calm     86 % 0 mm
09:34 -5.8 °C -7.3 °C 34303.6 hPa Calm     85 % 0 mm
09:39 -5.6 °C -7.3 °C 34269.7 hPa Calm     83 % 0 mm
09:44 -5.5 °C -7.4 °C 34269.7 hPa Calm     81 % 0 mm
09:49 -5.4 °C -7.3 °C 34269.7 hPa Calm     81 % 0 mm
09:54 -5.2 °C -7.2 °C 34269.7 hPa Calm     80 % 0 mm
09:59 -4.9 °C -6.9 °C 34269.7 hPa Calm     80 % 0 mm
10:04 -4.6 °C -6.8 °C 34269.7 hPa Calm     79 % 0 mm
10:09 -4.4 °C -6.9 °C 34269.7 hPa Calm     76 % 0 mm
10:14 -4.2 °C -7 °C 34269.7 hPa Calm     74 % 0 mm
10:19 -4.1 °C -7 °C 34269.7 hPa Calm     73 % 0 mm
10:24 -3.9 °C -6.8 °C 34269.7 hPa Calm     73 % 0 mm
10:29 -3.8 °C -6.8 °C 34269.7 hPa Calm     72 % 0 mm
10:34 -3.6 °C -6.8 °C 34269.7 hPa Calm     71 % 0 mm
10:39 -3.4 °C -6.8 °C 34269.7 hPa Calm     69 % 0 mm
10:44 -3.2 °C -6.8 °C 34269.7 hPa Calm     68 % 0 mm
10:49 -3.1 °C -6.8 °C 34269.7 hPa Calm     67 % 0 mm
10:54 -3.1 °C -7.2 °C 34269.7 hPa Calm     64 % 0 mm
10:59 -2.8 °C -7.1 °C 34269.7 hPa Calm     63 % 0 mm
11:04 -2.8 °C -7.3 °C 34269.7 hPa Calm     61 % 0 mm
11:09 -2.6 °C -7.2 °C 34235.8 hPa Calm     61 % 0 mm
11:14 -2.5 °C -7.2 °C 34235.8 hPa Calm     60 % 0 mm
11:19 -2.4 °C -7.3 °C 34235.8 hPa Calm     59 % 0 mm
11:24 -2.3 °C -7.1 °C 34269.7 hPa Calm     60 % 0 mm
11:29 -2.2 °C -7.2 °C 34269.7 hPa Calm     58 % 0 mm
11:34 -2.2 °C -7.3 °C 34269.7 hPa Calm     57 % 0 mm
11:39 -2 °C -7.2 °C 34303.6 hPa Calm     57 % 0 mm
11:44 -1.9 °C -7.3 °C 34303.6 hPa Calm     56 % 0 mm
11:49 -2.1 °C -7.7 °C 34303.6 hPa Calm     54 % 0 mm
11:54 -2.1 °C -7.8 °C 34269.7 hPa Calm     54 % 0 mm
11:59 -2.2 °C -7.7 °C 34269.7 hPa Calm     55 % 0 mm
12:04 -2.2 °C -7.9 °C 34269.7 hPa Calm     54 % 0 mm
12:09 -2.3 °C -7.9 °C 34269.7 hPa Calm     54 % 0 mm
12:14 -2.3 °C -7.9 °C 34269.7 hPa Calm     54 % 0 mm
12:19 -2.4 °C -7.6 °C 34269.7 hPa Calm     57 % 0 mm
12:22 -2.4 °C -7.6 °C 34269.7 hPa Calm     57 % 0 mm
12:27 -2.4 °C -7.4 °C 34269.7 hPa Calm     58 % 0 mm
12:32 -2.5 °C -7.7 °C 34269.7 hPa Calm     57 % 0 mm
12:37 -2.4 °C -7.3 °C 34269.7 hPa Calm     59 % 0 mm
12:42 -2.4 °C -7.4 °C 34269.7 hPa Calm     58 % 0 mm
12:47 -2.4 °C -7.6 °C 34269.7 hPa Calm     57 % 0 mm
12:52 -2.3 °C -7.3 °C 34269.7 hPa Calm     58 % 0 mm
12:57 -2.4 °C -7.4 °C 34235.8 hPa Calm     58 % 0 mm
13:02 -2.4 °C -7.4 °C 34235.8 hPa Calm     58 % 0 mm
13:05 -2.4 °C -7.4 °C 34235.8 hPa Calm     58 % 0 mm
13:10 -2.4 °C -7.4 °C 34235.8 hPa Calm     58 % 0 mm
13:15 -2.4 °C -7.3 °C 34235.8 hPa Calm     59 % 0 mm
13:20 -2.5 °C -7.3 °C 34235.8 hPa Calm     59 % 0 mm
13:25 -2.6 °C -7.4 °C 34269.7 hPa Calm     59 % 0 mm
13:30 -2.7 °C -7.5 °C 34269.7 hPa Calm     59 % 0 mm
13:35 -2.7 °C -7.4 °C 34269.7 hPa Calm     60 % 0 mm
13:40 -2.7 °C -7.4 °C 34269.7 hPa Calm     60 % 0 mm
13:45 -2.7 °C -7.2 °C 34269.7 hPa Calm     61 % 0 mm
13:50 -2.7 °C -7.2 °C 34269.7 hPa Calm     61 % 0 mm
13:55 -2.6 °C -7.3 °C 34269.7 hPa Calm     60 % 0 mm
14:00 -2.6 °C -7.3 °C 34269.7 hPa Calm     60 % 0 mm
14:05 -2.6 °C -7.2 °C 34269.7 hPa Calm     61 % 0 mm
14:10 -2.6 °C -7.2 °C 34235.8 hPa Calm     61 % 0 mm
14:12 -2.6 °C -7.2 °C 34235.8 hPa Calm     61 % 0 mm
14:16 -2.6 °C -7.2 °C 34235.8 hPa Calm     61 % 0 mm
14:21 -2.7 °C -7.1 °C 34235.8 hPa Calm     62 % 0 mm
14:26 -2.7 °C -6.9 °C 34235.8 hPa Calm     63 % 0 mm
14:31 -2.7 °C -6.9 °C 34235.8 hPa Calm     63 % 0 mm
14:36 -2.6 °C -6.9 °C 34235.8 hPa Calm     63 % 0 mm
14:41 -2.6 °C -6.7 °C 34269.7 hPa Calm     64 % 0 mm
14:46 -2.6 °C -6.9 °C 34269.7 hPa Calm     63 % 0 mm
14:51 -2.6 °C -6.7 °C 34269.7 hPa Calm     64 % 0 mm
14:56 -2.7 °C -6.9 °C 34235.8 hPa Calm     63 % 0 mm
15:01 -2.7 °C -6.9 °C 34235.8 hPa Calm     63 % 0 mm
15:06 -2.7 °C -7.3 °C 34235.8 hPa Calm     61 % 0 mm
15:11 -2.8 °C -7.4 °C 34303.6 hPa Calm     60 % 0 mm
15:16 -2.8 °C -7.8 °C 34303.6 hPa Calm     58 % 0 mm
15:21 -2.8 °C -7.7 °C 34303.6 hPa Calm     59 % 0 mm
15:26 -2.8 °C -7.7 °C 34269.7 hPa Calm     59 % 0 mm
15:31 -2.9 °C -7.9 °C 34269.7 hPa Calm     58 % 0 mm
15:36 -3 °C -7.8 °C 34269.7 hPa Calm     59 % 0 mm
15:41 -3.1 °C -7.9 °C 34269.7 hPa Calm     59 % 0 mm
15:46 -3.2 °C -7.9 °C 34269.7 hPa Calm     59 % 0 mm
15:51 -3.2 °C -7.7 °C 34269.7 hPa Calm     61 % 0 mm
15:56 -3.2 °C -7.7 °C 34269.7 hPa Calm     61 % 0 mm
16:00 -3.2 °C -7.7 °C 34269.7 hPa Calm     61 % 0 mm
16:05 -3.2 °C -7.7 °C 34269.7 hPa Calm     61 % 0 mm
16:10 -3.2 °C -7.6 °C 34269.7 hPa Calm     62 % 0 mm
16:15 -3.2 °C -7.6 °C 34269.7 hPa Calm     62 % 0 mm
16:20 -3.3 °C -7.7 °C 34269.7 hPa Calm     62 % 0 mm
16:25 -3.3 °C -7.5 °C 34235.8 hPa Calm     63 % 0 mm
16:30 -3.3 °C -7.7 °C 34235.8 hPa Calm     62 % 0 mm
16:35 -3.3 °C -7.8 °C 34235.8 hPa Calm     61 % 0 mm
16:40 -3.3 °C -7.8 °C 34235.8 hPa Calm     61 % 0 mm
16:45 -3.3 °C -7.7 °C 34235.8 hPa Calm     62 % 0 mm
16:50 -3.3 °C -7.8 °C 34235.8 hPa Calm     61 % 0 mm
16:55 -3.3 °C -7.5 °C 34198.6 hPa Calm     63 % 0 mm
17:00 -3.3 °C -7.7 °C 34198.6 hPa Calm     62 % 0 mm
17:05 -3.4 °C -7.7 °C 34198.6 hPa Calm     62 % 0 mm
17:10 -3.4 °C -7.7 °C 34235.8 hPa Calm     62 % 0 mm
17:15 -3.4 °C -7.8 °C 34235.8 hPa Calm     62 % 0 mm
17:20 -3.5 °C -7.7 °C 34235.8 hPa Calm     63 % 0 mm
17:25 -3.6 °C -7.7 °C 34198.6 hPa Calm     63 % 0 mm
17:30 -3.6 °C -7.7 °C 34198.6 hPa Calm     64 % 0 mm
17:36 -3.6 °C -7.6 °C 34198.6 hPa Calm     65 % 0 mm
17:41 -3.7 °C -7.6 °C 34198.6 hPa Calm     65 % 0 mm
17:46 -3.7 °C -7.7 °C 34198.6 hPa Calm     65 % 0 mm
17:51 -3.7 °C -7.7 °C 34198.6 hPa Calm     65 % 0 mm
17:56 -3.8 °C -7.4 °C 34198.6 hPa Calm     67 % 0 mm
18:01 -3.8 °C -7.6 °C 34198.6 hPa Calm     66 % 0 mm
18:06 -3.8 °C -7.4 °C 34198.6 hPa Calm     67 % 0 mm
18:11 -3.8 °C -7.4 °C 34198.6 hPa Calm     67 % 0 mm
18:16 -3.7 °C -7.3 °C 34198.6 hPa Calm     67 % 0 mm
18:21 -3.7 °C -7.4 °C 34198.6 hPa Calm     66 % 0 mm
18:26 -3.7 °C -7.6 °C 34198.6 hPa Calm     65 % 0 mm
18:31 -3.7 °C -7.8 °C 34198.6 hPa Calm     64 % 0 mm
18:36 -3.7 °C -7.8 °C 34198.6 hPa Calm     64 % 0 mm
18:41 -3.8 °C -7.9 °C 34235.8 hPa Calm     63 % 0 mm
18:46 -3.8 °C -8 °C 34235.8 hPa Calm     63 % 0 mm
18:51 -3.9 °C -8 °C 34235.8 hPa Calm     64 % 0 mm
18:56 -4 °C -8.2 °C 34198.6 hPa Calm     63 % 0 mm
19:01 -4.1 °C -8.2 °C 34198.6 hPa Calm     64 % 0 mm
19:06 -4.2 °C -8.2 °C 34198.6 hPa Calm     64 % 0 mm
19:11 -4.2 °C -8.2 °C 34235.8 hPa Calm     64 % 0 mm
19:16 -4.3 °C -8.2 °C 34235.8 hPa Calm     65 % 0 mm
19:21 -4.4 °C -8.3 °C 34235.8 hPa Calm     65 % 0 mm
19:26 -4.5 °C -8 °C 34198.6 hPa Calm     68 % 0 mm
19:31 -4.7 °C -8 °C 34198.6 hPa Calm     69 % 0 mm
19:36 -4.8 °C -8.1 °C 34198.6 hPa Calm     70 % 0 mm
19:41 -4.9 °C -8 °C 34164.7 hPa Calm     71 % 0 mm
19:46 -5.1 °C -7.9 °C 34164.7 hPa Calm     73 % 0 mm
19:51 -5.2 °C -8.1 °C 34164.7 hPa Calm     73 % 0 mm
19:56 -5.3 °C -8 °C 34198.6 hPa Calm     74 % 0 mm
20:01 -5.4 °C -8.2 °C 34198.6 hPa Calm     74 % 0 mm
20:06 -5.6 °C -8.1 °C 34198.6 hPa Calm     75 % 0 mm
20:11 -5.7 °C -8.1 °C 34198.6 hPa Calm     76 % 0 mm
20:16 -5.8 °C -8.1 °C 34198.6 hPa Calm     77 % 0 mm
20:21 -5.9 °C -8.2 °C 34198.6 hPa Calm     77 % 0 mm
20:22 -5.9 °C -8.2 °C 34198.6 hPa Calm     77 % 0 mm
20:27 -6 °C -8.2 °C 34198.6 hPa Calm     78 % 0 mm
20:32 -6.1 °C -8.3 °C 34198.6 hPa Calm     78 % 0 mm
20:37 -6.2 °C -8.3 °C 34198.6 hPa Calm     79 % 0 mm
20:42 -6.3 °C -8.3 °C 34198.6 hPa Calm     80 % 0 mm
20:47 -6.3 °C -8.3 °C 34198.6 hPa Calm     80 % 0 mm
20:52 -6.4 °C -8.4 °C 34198.6 hPa Calm     80 % 0 mm
20:57 -6.6 °C -8.4 °C 34198.6 hPa Calm     81 % 0 mm
21:02 -6.7 °C -8.6 °C 34198.6 hPa Calm     81 % 0 mm
21:07 -6.7 °C -8.5 °C 34198.6 hPa Calm     82 % 0 mm
21:12 -6.8 °C -8.6 °C 34164.7 hPa Calm     82 % 0 mm
21:17 -6.9 °C -8.7 °C 34164.7 hPa Calm     82 % 0 mm
21:22 -7 °C -8.8 °C 34164.7 hPa Calm     82 % 0 mm
21:27 -7.1 °C -8.8 °C 34198.6 hPa Calm     82 % 0 mm
21:28 -7.1 °C -8.8 °C 34198.6 hPa Calm     82 % 0 mm
21:33 -7.2 °C -8.8 °C 34198.6 hPa Calm     83 % 0 mm
21:38 -7.2 °C -8.8 °C 34198.6 hPa Calm     83 % 0 mm
21:43 -7.3 °C -9 °C 34198.6 hPa Calm     83 % 0 mm
21:48 -7.4 °C -8.9 °C 34198.6 hPa Calm     84 % 0 mm
21:59 -7.5 °C -9.1 °C 34198.6 hPa Calm     84 % 0 mm
22:04 -7.6 °C -9.1 °C 34198.6 hPa Calm     84 % 0 mm
22:09 -7.6 °C -9.1 °C 34198.6 hPa Calm     84 % 0 mm
22:14 -7.7 °C -9.1 °C 34198.6 hPa Calm     85 % 0 mm
22:19 -7.7 °C -9.1 °C 34198.6 hPa Calm     85 % 0 mm
22:24 -7.7 °C -9.1 °C 34198.6 hPa Calm     85 % 0 mm
22:29 -7.8 °C -9.2 °C 34198.6 hPa Calm     85 % 0 mm
22:34 -7.8 °C -9.1 °C 34198.6 hPa Calm     87 % 0 mm
22:39 -7.9 °C -9.1 °C 34198.6 hPa Calm     87 % 0 mm
22:44 -7.9 °C -9.2 °C 34198.6 hPa Calm     87 % 0 mm
22:49 -7.9 °C -9.1 °C 34198.6 hPa Calm     88 % 0 mm
22:54 -8 °C -9.1 °C 34198.6 hPa Calm     88 % 0 mm
22:59 -8.1 °C -9.2 °C 34198.6 hPa Calm     88 % 0 mm
23:04 -8.1 °C -9.2 °C 34198.6 hPa Calm     88 % 0 mm
23:09 -8.1 °C -9.1 °C 34198.6 hPa Calm     89 % 0 mm
23:14 -8.2 °C -9.2 °C 34198.6 hPa Calm     89 % 0 mm
23:19 -8.2 °C -9.2 °C 34198.6 hPa Calm     89 % 0 mm
23:24 -8.2 °C -9.2 °C 34198.6 hPa Calm     89 % 0 mm
23:29 -8.2 °C -9.2 °C 34198.6 hPa Calm     89 % 0 mm
23:34 -8.3 °C -9.3 °C 34198.6 hPa Calm     89 % 0 mm
23:39 -8.3 °C -9.2 °C 34198.6 hPa Calm     90 % 0 mm
23:44 -8.3 °C -9.3 °C 34198.6 hPa Calm     90 % 0 mm
23:49 -8.3 °C -9.3 °C 34198.6 hPa Calm     90 % 0 mm
23:54 -8.4 °C -9.2 °C 34198.6 hPa Calm     91 % 0 mm
Vremenska postaja Senovo
Podatki zbrani iz Weather Underground - 3 mb

Script developed by  Jim McMurry - jmcmurry@mwt.net Adapted for the template by  Wim van der Kuil - Leuven-Template.eu

Vremenski podatki so objavljeni na:

European Weather Network

WeatherCloud

Weather Underground

AWEKAS

HAMweather, WeatherForYou, PWS Weather

MapView

Geostik

Slovenia weather network

Oprema, ki se uporablja:

Vremenski program
Cumulus

Vremenski server
Asus

Cumulus

Asus